sensor_id;sensor_type;location;lat;lon;timestamp;temperature;humidity
2579;DHT22;1299;48.282;14.398;2022-10-04T00:01:45;9.80;99.90
2579;DHT22;1299;48.282;14.398;2022-10-04T00:04:16;9.80;99.90
2579;DHT22;1299;48.282;14.398;2022-10-04T00:06:50;10.00;99.90
2579;DHT22;1299;48.282;14.398;2022-10-04T00:09:22;9.50;99.90
2579;DHT22;1299;48.282;14.398;2022-10-04T00:11:53;9.70;99.90
2579;DHT22;1299;48.282;14.398;2022-10-04T00:14:25;9.80;99.90
2579;DHT22;1299;48.282;14.398;2022-10-04T00:16:56;9.80;99.90
2579;DHT22;1299;48.282;14.398;2022-10-04T00:19:42;9.80;99.90
2579;DHT22;1299;48.282;14.398;2022-10-04T00:22:15;9.80;99.90
2579;DHT22;1299;48.282;14.398;2022-10-04T00:31:14;9.70;99.90
2579;DHT22;1299;48.282;14.398;2022-10-04T00:33:43;9.90;99.90
2579;DHT22;1299;48.282;14.398;2022-10-04T00:36:30;9.90;99.90
2579;DHT22;1299;48.282;14.398;2022-10-04T00:39:23;10.10;99.90
2579;DHT22;1299;48.282;14.398;2022-10-04T00:42:05;9.80;99.90
2579;DHT22;1299;48.282;14.398;2022-10-04T00:44:40;10.00;99.90
2579;DHT22;1299;48.282;14.398;2022-10-04T00:47:23;9.80;99.90
2579;DHT22;1299;48.282;14.398;2022-10-04T00:50:02;9.80;99.90
2579;DHT22;1299;48.282;14.398;2022-10-04T00:52:35;9.90;99.90
2579;DHT22;1299;48.282;14.398;2022-10-04T00:55:06;9.90;99.90
2579;DHT22;1299;48.282;14.398;2022-10-04T00:57:41;9.80;99.90
2579;DHT22;1299;48.282;14.398;2022-10-04T01:00:12;9.70;99.90
2579;DHT22;1299;48.282;14.398;2022-10-04T01:02:51;9.70;99.90
2579;DHT22;1299;48.282;14.398;2022-10-04T01:05:22;9.80;99.90
2579;DHT22;1299;48.282;14.398;2022-10-04T01:07:55;9.80;99.90
2579;DHT22;1299;48.282;14.398;2022-10-04T01:10:26;9.70;99.90
2579;DHT22;1299;48.282;14.398;2022-10-04T01:12:59;9.40;99.90
2579;DHT22;1299;48.282;14.398;2022-10-04T01:15:33;9.60;99.90
2579;DHT22;1299;48.282;14.398;2022-10-04T01:18:27;9.70;99.90
2579;DHT22;1299;48.282;14.398;2022-10-04T01:20:57;9.60;99.90
2579;DHT22;1299;48.282;14.398;2022-10-04T01:23:41;9.40;99.90
2579;DHT22;1299;48.282;14.398;2022-10-04T01:26:38;9.40;99.90
2579;DHT22;1299;48.282;14.398;2022-10-04T01:29:09;9.40;99.90
2579;DHT22;1299;48.282;14.398;2022-10-04T01:31:38;9.40;99.90
2579;DHT22;1299;48.282;14.398;2022-10-04T01:34:07;9.40;99.90
2579;DHT22;1299;48.282;14.398;2022-10-04T01:36:35;9.40;99.90
2579;DHT22;1299;48.282;14.398;2022-10-04T01:39:04;9.40;99.90
2579;DHT22;1299;48.282;14.398;2022-10-04T01:41:45;9.30;99.90
2579;DHT22;1299;48.282;14.398;2022-10-04T01:44:25;9.40;99.90
2579;DHT22;1299;48.282;14.398;2022-10-04T01:46:57;9.30;99.90
2579;DHT22;1299;48.282;14.398;2022-10-04T01:49:29;9.30;99.90
2579;DHT22;1299;48.282;14.398;2022-10-04T01:52:02;9.40;99.90
2579;DHT22;1299;48.282;14.398;2022-10-04T01:54:35;9.40;99.90
2579;DHT22;1299;48.282;14.398;2022-10-04T01:57:10;9.00;99.90
2579;DHT22;1299;48.282;14.398;2022-10-04T01:59:42;9.20;99.90
2579;DHT22;1299;48.282;14.398;2022-10-04T02:02:20;9.30;99.90
2579;DHT22;1299;48.282;14.398;2022-10-04T02:04:51;9.20;99.90
2579;DHT22;1299;48.282;14.398;2022-10-04T02:07:20;9.20;99.90
2579;DHT22;1299;48.282;14.398;2022-10-04T02:09:54;9.20;99.90
2579;DHT22;1299;48.282;14.398;2022-10-04T02:12:25;9.20;99.90
2579;DHT22;1299;48.282;14.398;2022-10-04T02:14:54;9.20;99.90
2579;DHT22;1299;48.282;14.398;2022-10-04T02:17:25;9.10;99.90
2579;DHT22;1299;48.282;14.398;2022-10-04T02:19:54;9.20;99.90
2579;DHT22;1299;48.282;14.398;2022-10-04T02:22:24;9.10;99.90
2579;DHT22;1299;48.282;14.398;2022-10-04T02:24:55;9.00;99.90
2579;DHT22;1299;48.282;14.398;2022-10-04T02:27:26;8.90;99.90
2579;DHT22;1299;48.282;14.398;2022-10-04T02:29:59;8.90;99.90
2579;DHT22;1299;48.282;14.398;2022-10-04T02:32:30;9.00;99.90
2579;DHT22;1299;48.282;14.398;2022-10-04T02:35:15;9.00;99.90
2579;DHT22;1299;48.282;14.398;2022-10-04T02:37:45;9.00;99.90
2579;DHT22;1299;48.282;14.398;2022-10-04T02:40:17;9.00;99.90
2579;DHT22;1299;48.282;14.398;2022-10-04T02:42:49;9.00;99.90
2579;DHT22;1299;48.282;14.398;2022-10-04T02:45:22;8.90;99.90
2579;DHT22;1299;48.282;14.398;2022-10-04T02:47:53;8.90;99.90
2579;DHT22;1299;48.282;14.398;2022-10-04T02:50:28;8.80;99.90
2579;DHT22;1299;48.282;14.398;2022-10-04T02:53:00;8.80;99.90
2579;DHT22;1299;48.282;14.398;2022-10-04T02:55:36;8.80;99.90
2579;DHT22;1299;48.282;14.398;2022-10-04T02:58:08;8.70;99.90
2579;DHT22;1299;48.282;14.398;2022-10-04T03:00:45;8.70;99.90
2579;DHT22;1299;48.282;14.398;2022-10-04T03:03:21;8.80;99.90
2579;DHT22;1299;48.282;14.398;2022-10-04T03:05:57;8.80;99.90
2579;DHT22;1299;48.282;14.398;2022-10-04T03:08:27;8.80;99.90
2579;DHT22;1299;48.282;14.398;2022-10-04T03:10:57;8.70;99.90
2579;DHT22;1299;48.282;14.398;2022-10-04T03:13:26;8.60;99.90
2579;DHT22;1299;48.282;14.398;2022-10-04T03:15:54;8.50;99.90
2579;DHT22;1299;48.282;14.398;2022-10-04T03:18:22;8.60;99.90
2579;DHT22;1299;48.282;14.398;2022-10-04T03:20:50;8.60;99.90
2579;DHT22;1299;48.282;14.398;2022-10-04T03:23:19;8.40;99.90
2579;DHT22;1299;48.282;14.398;2022-10-04T03:25:51;8.50;99.90
2579;DHT22;1299;48.282;14.398;2022-10-04T03:28:21;8.50;99.90
2579;DHT22;1299;48.282;14.398;2022-10-04T03:30:49;8.50;99.90
2579;DHT22;1299;48.282;14.398;2022-10-04T03:33:19;8.50;99.90
2579;DHT22;1299;48.282;14.398;2022-10-04T03:35:50;8.50;99.90
2579;DHT22;1299;48.282;14.398;2022-10-04T03:38:21;8.50;99.90
2579;DHT22;1299;48.282;14.398;2022-10-04T03:40:54;8.50;99.90
2579;DHT22;1299;48.282;14.398;2022-10-04T03:43:26;8.40;99.90
2579;DHT22;1299;48.282;14.398;2022-10-04T03:45:56;8.50;99.90
2579;DHT22;1299;48.282;14.398;2022-10-04T03:48:33;8.50;99.90
2579;DHT22;1299;48.282;14.398;2022-10-04T03:51:04;8.50;99.90
2579;DHT22;1299;48.282;14.398;2022-10-04T03:53:34;8.50;99.90
2579;DHT22;1299;48.282;14.398;2022-10-04T03:56:11;8.30;99.90
2579;DHT22;1299;48.282;14.398;2022-10-04T03:58:41;8.40;99.90
2579;DHT22;1299;48.282;14.398;2022-10-04T04:01:19;8.40;99.90
2579;DHT22;1299;48.282;14.398;2022-10-04T04:03:58;8.40;99.90
2579;DHT22;1299;48.282;14.398;2022-10-04T04:06:32;8.40;99.90
2579;DHT22;1299;48.282;14.398;2022-10-04T04:09:04;8.40;99.90
2579;DHT22;1299;48.282;14.398;2022-10-04T04:11:33;8.40;99.90
2579;DHT22;1299;48.282;14.398;2022-10-04T04:14:08;8.30;99.90
2579;DHT22;1299;48.282;14.398;2022-10-04T04:16:38;8.30;99.90
2579;DHT22;1299;48.282;14.398;2022-10-04T04:19:12;8.30;99.90
2579;DHT22;1299;48.282;14.398;2022-10-04T04:21:40;8.20;99.90
2579;DHT22;1299;48.282;14.398;2022-10-04T04:24:17;8.30;99.90
2579;DHT22;1299;48.282;14.398;2022-10-04T04:26:52;8.20;99.90
2579;DHT22;1299;48.282;14.398;2022-10-04T04:29:25;8.20;99.90
2579;DHT22;1299;48.282;14.398;2022-10-04T04:31:59;8.00;99.90
2579;DHT22;1299;48.282;14.398;2022-10-04T04:34:29;8.10;99.90
2579;DHT22;1299;48.282;14.398;2022-10-04T04:36:58;8.10;99.90
2579;DHT22;1299;48.282;14.398;2022-10-04T04:39:27;8.10;99.90
2579;DHT22;1299;48.282;14.398;2022-10-04T04:42:08;8.10;99.90
2579;DHT22;1299;48.282;14.398;2022-10-04T04:44:45;8.20;99.90
2579;DHT22;1299;48.282;14.398;2022-10-04T04:47:26;8.20;99.90
2579;DHT22;1299;48.282;14.398;2022-10-04T04:49:55;8.10;99.90
2579;DHT22;1299;48.282;14.398;2022-10-04T04:52:27;8.30;99.90
2579;DHT22;1299;48.282;14.398;2022-10-04T04:54:56;8.30;99.90
2579;DHT22;1299;48.282;14.398;2022-10-04T04:57:24;8.20;99.90
2579;DHT22;1299;48.282;14.398;2022-10-04T04:59:56;8.10;99.90
2579;DHT22;1299;48.282;14.398;2022-10-04T05:02:32;8.10;99.90
2579;DHT22;1299;48.282;14.398;2022-10-04T05:05:16;8.10;99.90
2579;DHT22;1299;48.282;14.398;2022-10-04T05:07:43;7.90;99.90
2579;DHT22;1299;48.282;14.398;2022-10-04T05:10:35;7.90;99.90
2579;DHT22;1299;48.282;14.398;2022-10-04T05:13:02;7.90;99.90
2579;DHT22;1299;48.282;14.398;2022-10-04T05:15:37;7.90;99.90
2579;DHT22;1299;48.282;14.398;2022-10-04T05:18:18;7.90;99.90
2579;DHT22;1299;48.282;14.398;2022-10-04T05:20:51;7.90;99.90
2579;DHT22;1299;48.282;14.398;2022-10-04T05:23:19;7.90;99.90
2579;DHT22;1299;48.282;14.398;2022-10-04T05:25:47;7.80;99.90
2579;DHT22;1299;48.282;14.398;2022-10-04T05:28:16;8.00;99.90
2579;DHT22;1299;48.282;14.398;2022-10-04T05:30:56;8.00;99.90
2579;DHT22;1299;48.282;14.398;2022-10-04T05:33:36;7.80;99.90
2579;DHT22;1299;48.282;14.398;2022-10-04T05:39:10;8.00;99.90
2579;DHT22;1299;48.282;14.398;2022-10-04T05:41:48;8.10;99.90
2579;DHT22;1299;48.282;14.398;2022-10-04T05:44:29;8.10;99.90
2579;DHT22;1299;48.282;14.398;2022-10-04T05:47:00;8.20;99.90
2579;DHT22;1299;48.282;14.398;2022-10-04T05:49:33;8.30;99.90
2579;DHT22;1299;48.282;14.398;2022-10-04T05:52:13;8.50;99.90
2579;DHT22;1299;48.282;14.398;2022-10-04T05:54:41;8.60;99.90
2579;DHT22;1299;48.282;14.398;2022-10-04T05:57:26;9.00;99.90
2579;DHT22;1299;48.282;14.398;2022-10-04T06:00:11;9.70;99.90
2579;DHT22;1299;48.282;14.398;2022-10-04T06:02:55;10.10;99.90
2579;DHT22;1299;48.282;14.398;2022-10-04T06:05:36;10.10;99.90
2579;DHT22;1299;48.282;14.398;2022-10-04T06:08:13;9.90;99.90
2579;DHT22;1299;48.282;14.398;2022-10-04T06:11:09;9.90;99.90
2579;DHT22;1299;48.282;14.398;2022-10-04T06:13:55;10.00;99.90
2579;DHT22;1299;48.282;14.398;2022-10-04T06:16:38;10.70;99.90
2579;DHT22;1299;48.282;14.398;2022-10-04T06:19:27;10.90;99.90
2579;DHT22;1299;48.282;14.398;2022-10-04T06:22:05;11.20;99.90
2579;DHT22;1299;48.282;14.398;2022-10-04T06:24:38;11.30;99.90
2579;DHT22;1299;48.282;14.398;2022-10-04T06:27:16;14.70;99.90
2579;DHT22;1299;48.282;14.398;2022-10-04T06:29:54;17.30;99.90
2579;DHT22;1299;48.282;14.398;2022-10-04T06:35:57;17.60;99.90
2579;DHT22;1299;48.282;14.398;2022-10-04T06:39:02;17.30;99.90
2579;DHT22;1299;48.282;14.398;2022-10-04T06:45:01;19.80;99.90
2579;DHT22;1299;48.282;14.398;2022-10-04T06:50:41;15.70;99.90
2579;DHT22;1299;48.282;14.398;2022-10-04T06:53:22;15.40;99.90
2579;DHT22;1299;48.282;14.398;2022-10-04T06:56:07;14.70;99.90
2579;DHT22;1299;48.282;14.398;2022-10-04T07:01:29;15.10;99.90
2579;DHT22;1299;48.282;14.398;2022-10-04T07:04:02;15.40;99.90
2579;DHT22;1299;48.282;14.398;2022-10-04T07:06:38;14.80;99.90
2579;DHT22;1299;48.282;14.398;2022-10-04T07:09:15;14.00;99.90
2579;DHT22;1299;48.282;14.398;2022-10-04T07:11:51;13.90;99.90
2579;DHT22;1299;48.282;14.398;2022-10-04T07:14:22;14.10;99.90
2579;DHT22;1299;48.282;14.398;2022-10-04T07:16:55;13.70;99.90
2579;DHT22;1299;48.282;14.398;2022-10-04T07:19:36;13.70;99.90
2579;DHT22;1299;48.282;14.398;2022-10-04T07:22:15;13.90;99.90
2579;DHT22;1299;48.282;14.398;2022-10-04T07:25:02;14.20;99.90
2579;DHT22;1299;48.282;14.398;2022-10-04T07:27:35;14.00;99.90
2579;DHT22;1299;48.282;14.398;2022-10-04T07:30:13;13.60;99.90
2579;DHT22;1299;48.282;14.398;2022-10-04T07:32:43;13.50;99.90
2579;DHT22;1299;48.282;14.398;2022-10-04T07:35:25;13.70;99.90
2579;DHT22;1299;48.282;14.398;2022-10-04T07:38:07;13.80;99.90
2579;DHT22;1299;48.282;14.398;2022-10-04T07:40:38;13.80;99.90
2579;DHT22;1299;48.282;14.398;2022-10-04T07:43:10;14.00;99.90
2579;DHT22;1299;48.282;14.398;2022-10-04T07:45:40;13.80;99.90
2579;DHT22;1299;48.282;14.398;2022-10-04T07:48:13;13.90;99.90
2579;DHT22;1299;48.282;14.398;2022-10-04T07:50:44;14.40;99.90
2579;DHT22;1299;48.282;14.398;2022-10-04T07:53:18;14.20;99.90
2579;DHT22;1299;48.282;14.398;2022-10-04T07:55:55;14.00;99.90
2579;DHT22;1299;48.282;14.398;2022-10-04T07:58:36;13.90;99.90
2579;DHT22;1299;48.282;14.398;2022-10-04T08:01:19;14.30;99.90
2579;DHT22;1299;48.282;14.398;2022-10-04T08:03:57;14.00;99.90
2579;DHT22;1299;48.282;14.398;2022-10-04T08:06:34;13.90;99.90
2579;DHT22;1299;48.282;14.398;2022-10-04T08:09:22;14.40;99.90
2579;DHT22;1299;48.282;14.398;2022-10-04T08:12:00;14.60;99.90
2579;DHT22;1299;48.282;14.398;2022-10-04T08:14:45;14.80;99.90
2579;DHT22;1299;48.282;14.398;2022-10-04T08:17:32;15.00;99.90
2579;DHT22;1299;48.282;14.398;2022-10-04T08:20:22;15.00;99.90
2579;DHT22;1299;48.282;14.398;2022-10-04T08:23:05;15.10;99.90
2579;DHT22;1299;48.282;14.398;2022-10-04T08:25:46;15.20;99.90
2579;DHT22;1299;48.282;14.398;2022-10-04T08:28:28;15.20;99.90
2579;DHT22;1299;48.282;14.398;2022-10-04T08:31:33;15.10;99.90
2579;DHT22;1299;48.282;14.398;2022-10-04T08:34:17;15.10;99.90
2579;DHT22;1299;48.282;14.398;2022-10-04T08:36:58;15.30;99.90
2579;DHT22;1299;48.282;14.398;2022-10-04T08:39:39;15.80;99.90
2579;DHT22;1299;48.282;14.398;2022-10-04T08:42:27;15.90;99.90
2579;DHT22;1299;48.282;14.398;2022-10-04T08:45:23;15.80;99.90
2579;DHT22;1299;48.282;14.398;2022-10-04T08:51:19;16.30;99.90
2579;DHT22;1299;48.282;14.398;2022-10-04T09:00:19;16.50;99.90
2579;DHT22;1299;48.282;14.398;2022-10-04T09:03:30;16.60;99.90
2579;DHT22;1299;48.282;14.398;2022-10-04T09:06:16;17.10;99.90
2579;DHT22;1299;48.282;14.398;2022-10-04T09:12:19;17.50;99.90
2579;DHT22;1299;48.282;14.398;2022-10-04T09:15:24;17.60;99.90
2579;DHT22;1299;48.282;14.398;2022-10-04T09:18:06;17.20;99.90
2579;DHT22;1299;48.282;14.398;2022-10-04T09:20:53;16.60;99.90
2579;DHT22;1299;48.282;14.398;2022-10-04T09:26:44;16.90;99.90
2579;DHT22;1299;48.282;14.398;2022-10-04T09:29:35;16.90;99.90
2579;DHT22;1299;48.282;14.398;2022-10-04T09:32:32;16.90;99.90
2579;DHT22;1299;48.282;14.398;2022-10-04T09:35:30;16.90;99.90
2579;DHT22;1299;48.282;14.398;2022-10-04T09:38:29;17.10;99.90
2579;DHT22;1299;48.282;14.398;2022-10-04T09:41:21;17.30;99.90
2579;DHT22;1299;48.282;14.398;2022-10-04T09:47:10;17.80;99.90
2579;DHT22;1299;48.282;14.398;2022-10-04T09:50:16;17.40;99.90
2579;DHT22;1299;48.282;14.398;2022-10-04T09:52:59;17.50;99.90
2579;DHT22;1299;48.282;14.398;2022-10-04T10:01:29;17.70;99.90
2579;DHT22;1299;48.282;14.398;2022-10-04T10:04:39;17.90;99.90
2579;DHT22;1299;48.282;14.398;2022-10-04T10:07:22;17.80;99.90
2579;DHT22;1299;48.282;14.398;2022-10-04T10:09:58;18.10;99.90
2579;DHT22;1299;48.282;14.398;2022-10-04T10:13:08;18.40;99.90
2579;DHT22;1299;48.282;14.398;2022-10-04T10:15:58;17.70;99.90
2579;DHT22;1299;48.282;14.398;2022-10-04T10:18:40;17.80;99.90
2579;DHT22;1299;48.282;14.398;2022-10-04T10:21:30;18.10;99.90
2579;DHT22;1299;48.282;14.398;2022-10-04T10:24:31;17.90;99.90
2579;DHT22;1299;48.282;14.398;2022-10-04T10:27:14;17.80;99.90
2579;DHT22;1299;48.282;14.398;2022-10-04T10:36:38;17.60;99.90
2579;DHT22;1299;48.282;14.398;2022-10-04T10:42:23;18.10;99.90
2579;DHT22;1299;48.282;14.398;2022-10-04T10:45:48;18.50;99.90
2579;DHT22;1299;48.282;14.398;2022-10-04T10:48:30;18.90;99.90
2579;DHT22;1299;48.282;14.398;2022-10-04T10:51:02;19.10;99.90
2579;DHT22;1299;48.282;14.398;2022-10-04T10:57:03;19.20;99.90
2579;DHT22;1299;48.282;14.398;2022-10-04T11:00:14;19.40;99.90
2579;DHT22;1299;48.282;14.398;2022-10-04T11:09:37;20.10;99.90
2579;DHT22;1299;48.282;14.398;2022-10-04T11:12:37;19.70;99.30
2579;DHT22;1299;48.282;14.398;2022-10-04T11:15:41;19.60;99.90
2579;DHT22;1299;48.282;14.398;2022-10-04T11:27:38;19.60;97.20
2579;DHT22;1299;48.282;14.398;2022-10-04T11:30:17;19.40;97.90
2579;DHT22;1299;48.282;14.398;2022-10-04T11:36:24;19.60;97.90
2579;DHT22;1299;48.282;14.398;2022-10-04T11:39:17;20.10;97.40
2579;DHT22;1299;48.282;14.398;2022-10-04T11:41:52;20.00;97.10
2579;DHT22;1299;48.282;14.398;2022-10-04T11:44:29;20.30;98.80
2579;DHT22;1299;48.282;14.398;2022-10-04T11:47:07;19.90;98.20
2579;DHT22;1299;48.282;14.398;2022-10-04T11:49:48;19.70;96.50
2579;DHT22;1299;48.282;14.398;2022-10-04T11:56:03;20.00;97.30
2579;DHT22;1299;48.282;14.398;2022-10-04T11:58:50;20.20;94.90
2579;DHT22;1299;48.282;14.398;2022-10-04T12:01:38;20.40;96.20
2579;DHT22;1299;48.282;14.398;2022-10-04T12:04:41;20.40;95.30
2579;DHT22;1299;48.282;14.398;2022-10-04T12:07:32;20.50;96.10
2579;DHT22;1299;48.282;14.398;2022-10-04T12:10:21;20.80;94.70
2579;DHT22;1299;48.282;14.398;2022-10-04T12:13:09;21.10;94.00
2579;DHT22;1299;48.282;14.398;2022-10-04T12:16:19;21.10;93.90
2579;DHT22;1299;48.282;14.398;2022-10-04T12:22:25;21.20;93.20
2579;DHT22;1299;48.282;14.398;2022-10-04T12:25:18;21.20;93.10
2579;DHT22;1299;48.282;14.398;2022-10-04T12:28:07;21.00;93.20
2579;DHT22;1299;48.282;14.398;2022-10-04T12:30:52;21.00;92.70
2579;DHT22;1299;48.282;14.398;2022-10-04T12:33:33;21.30;93.50
2579;DHT22;1299;48.282;14.398;2022-10-04T12:36:11;21.30;92.30
2579;DHT22;1299;48.282;14.398;2022-10-04T12:38:54;20.70;92.10
2579;DHT22;1299;48.282;14.398;2022-10-04T12:41:34;20.80;92.90
2579;DHT22;1299;48.282;14.398;2022-10-04T12:44:17;21.00;92.50
2579;DHT22;1299;48.282;14.398;2022-10-04T12:46:55;21.40;92.20
2579;DHT22;1299;48.282;14.398;2022-10-04T12:49:33;21.80;92.70
2579;DHT22;1299;48.282;14.398;2022-10-04T12:52:10;21.80;92.00
2579;DHT22;1299;48.282;14.398;2022-10-04T12:54:41;21.80;91.50
2579;DHT22;1299;48.282;14.398;2022-10-04T12:57:40;21.80;91.20
2579;DHT22;1299;48.282;14.398;2022-10-04T13:00:16;21.40;90.30
2579;DHT22;1299;48.282;14.398;2022-10-04T13:03:12;21.40;91.10
2579;DHT22;1299;48.282;14.398;2022-10-04T13:05:52;21.90;90.30
2579;DHT22;1299;48.282;14.398;2022-10-04T13:08:27;21.80;87.20
2579;DHT22;1299;48.282;14.398;2022-10-04T13:11:10;22.20;88.90
2579;DHT22;1299;48.282;14.398;2022-10-04T13:16:59;22.70;88.50
2579;DHT22;1299;48.282;14.398;2022-10-04T13:19:36;22.60;87.70
2579;DHT22;1299;48.282;14.398;2022-10-04T13:22:33;22.60;83.10
2579;DHT22;1299;48.282;14.398;2022-10-04T13:25:17;21.70;84.90
2579;DHT22;1299;48.282;14.398;2022-10-04T13:27:53;22.10;86.60
2579;DHT22;1299;48.282;14.398;2022-10-04T13:30:27;22.10;87.00
2579;DHT22;1299;48.282;14.398;2022-10-04T13:33:04;21.60;85.10
2579;DHT22;1299;48.282;14.398;2022-10-04T13:35:40;22.10;85.40
2579;DHT22;1299;48.282;14.398;2022-10-04T13:41:18;21.60;85.40
2579;DHT22;1299;48.282;14.398;2022-10-04T13:47:07;21.10;82.20
2579;DHT22;1299;48.282;14.398;2022-10-04T13:49:53;21.50;83.60
2579;DHT22;1299;48.282;14.398;2022-10-04T13:52:34;21.40;83.90
2579;DHT22;1299;48.282;14.398;2022-10-04T13:55:26;21.70;84.60
2579;DHT22;1299;48.282;14.398;2022-10-04T13:58:21;21.10;83.40
2579;DHT22;1299;48.282;14.398;2022-10-04T14:01:19;21.30;85.20
2579;DHT22;1299;48.282;14.398;2022-10-04T14:04:08;21.70;84.10
2579;DHT22;1299;48.282;14.398;2022-10-04T14:10:16;21.80;84.00
2579;DHT22;1299;48.282;14.398;2022-10-04T14:16:29;21.20;83.60
2579;DHT22;1299;48.282;14.398;2022-10-04T14:19:21;21.20;83.70
2579;DHT22;1299;48.282;14.398;2022-10-04T14:28:43;21.50;84.70
2579;DHT22;1299;48.282;14.398;2022-10-04T14:31:45;21.70;84.00
2579;DHT22;1299;48.282;14.398;2022-10-04T14:34:48;21.50;85.20
2579;DHT22;1299;48.282;14.398;2022-10-04T14:37:48;21.40;83.70
2579;DHT22;1299;48.282;14.398;2022-10-04T14:40:45;21.40;84.40
2579;DHT22;1299;48.282;14.398;2022-10-04T14:46:49;20.90;84.70
2579;DHT22;1299;48.282;14.398;2022-10-04T14:49:25;21.00;84.50
2579;DHT22;1299;48.282;14.398;2022-10-04T14:52:16;21.00;85.00
2579;DHT22;1299;48.282;14.398;2022-10-04T14:54:52;20.60;84.20
2579;DHT22;1299;48.282;14.398;2022-10-04T14:57:35;20.40;86.10
2579;DHT22;1299;48.282;14.398;2022-10-04T15:00:16;20.60;86.80
2579;DHT22;1299;48.282;14.398;2022-10-04T15:06:21;20.90;87.90
2579;DHT22;1299;48.282;14.398;2022-10-04T15:09:10;21.10;87.70
2579;DHT22;1299;48.282;14.398;2022-10-04T15:11:47;20.90;85.40
2579;DHT22;1299;48.282;14.398;2022-10-04T15:14:37;20.60;86.70
2579;DHT22;1299;48.282;14.398;2022-10-04T15:17:08;20.50;87.30
2579;DHT22;1299;48.282;14.398;2022-10-04T15:19:56;20.30;87.40
2579;DHT22;1299;48.282;14.398;2022-10-04T15:22:29;20.20;86.50
2579;DHT22;1299;48.282;14.398;2022-10-04T15:24:59;19.90;88.00
2579;DHT22;1299;48.282;14.398;2022-10-04T15:27:48;19.80;87.60
2579;DHT22;1299;48.282;14.398;2022-10-04T15:30:27;19.90;88.20
2579;DHT22;1299;48.282;14.398;2022-10-04T15:33:17;20.10;89.40
2579;DHT22;1299;48.282;14.398;2022-10-04T15:36:15;20.20;89.50
2579;DHT22;1299;48.282;14.398;2022-10-04T15:38:52;20.10;89.30
2579;DHT22;1299;48.282;14.398;2022-10-04T15:41:35;20.00;90.30
2579;DHT22;1299;48.282;14.398;2022-10-04T15:44:32;19.80;89.70
2579;DHT22;1299;48.282;14.398;2022-10-04T15:47:11;20.10;91.20
2579;DHT22;1299;48.282;14.398;2022-10-04T15:49:53;20.00;92.20
2579;DHT22;1299;48.282;14.398;2022-10-04T15:52:47;20.00;93.20
2579;DHT22;1299;48.282;14.398;2022-10-04T15:55:28;20.00;94.00
2579;DHT22;1299;48.282;14.398;2022-10-04T15:58:45;19.70;94.40
2579;DHT22;1299;48.282;14.398;2022-10-04T16:01:37;19.70;95.50
2579;DHT22;1299;48.282;14.398;2022-10-04T16:04:35;19.50;97.00
2579;DHT22;1299;48.282;14.398;2022-10-04T16:07:35;19.40;97.50
2579;DHT22;1299;48.282;14.398;2022-10-04T16:10:18;19.10;97.90
2579;DHT22;1299;48.282;14.398;2022-10-04T16:13:08;18.80;98.80
2579;DHT22;1299;48.282;14.398;2022-10-04T16:15:41;18.60;99.90
2579;DHT22;1299;48.282;14.398;2022-10-04T16:18:34;18.50;99.90
2579;DHT22;1299;48.282;14.398;2022-10-04T16:21:13;18.30;99.90
2579;DHT22;1299;48.282;14.398;2022-10-04T16:23:44;17.90;99.90
2579;DHT22;1299;48.282;14.398;2022-10-04T16:29:23;17.50;99.90
2579;DHT22;1299;48.282;14.398;2022-10-04T16:31:58;17.40;99.90
2579;DHT22;1299;48.282;14.398;2022-10-04T16:34:37;17.30;99.90
2579;DHT22;1299;48.282;14.398;2022-10-04T16:37:23;17.10;99.90
2579;DHT22;1299;48.282;14.398;2022-10-04T16:39:54;16.90;99.90
2579;DHT22;1299;48.282;14.398;2022-10-04T16:42:30;16.70;99.90
2579;DHT22;1299;48.282;14.398;2022-10-04T16:48:14;16.40;99.90
2579;DHT22;1299;48.282;14.398;2022-10-04T16:54:04;16.20;99.90
2579;DHT22;1299;48.282;14.398;2022-10-04T16:59:50;15.80;99.90
2579;DHT22;1299;48.282;14.398;2022-10-04T17:05:29;15.60;99.90
2579;DHT22;1299;48.282;14.398;2022-10-04T17:08:21;15.40;99.90
2579;DHT22;1299;48.282;14.398;2022-10-04T17:13:53;15.10;99.90
2579;DHT22;1299;48.282;14.398;2022-10-04T17:16:30;14.90;99.90
2579;DHT22;1299;48.282;14.398;2022-10-04T17:19:26;14.90;99.90
2579;DHT22;1299;48.282;14.398;2022-10-04T17:22:09;14.80;99.90
2579;DHT22;1299;48.282;14.398;2022-10-04T17:24:51;14.70;99.90
2579;DHT22;1299;48.282;14.398;2022-10-04T17:27:43;14.60;99.90
2579;DHT22;1299;48.282;14.398;2022-10-04T17:30:15;14.40;99.90
2579;DHT22;1299;48.282;14.398;2022-10-04T17:33:06;14.30;99.90
2579;DHT22;1299;48.282;14.398;2022-10-04T17:35:56;14.30;99.90
2579;DHT22;1299;48.282;14.398;2022-10-04T17:38:30;14.20;99.90
2579;DHT22;1299;48.282;14.398;2022-10-04T17:41:09;14.10;99.90
2579;DHT22;1299;48.282;14.398;2022-10-04T17:43:57;14.00;99.90
2579;DHT22;1299;48.282;14.398;2022-10-04T17:46:30;14.00;99.90
2579;DHT22;1299;48.282;14.398;2022-10-04T17:49:13;13.90;99.90
2579;DHT22;1299;48.282;14.398;2022-10-04T17:52:03;13.80;99.90
2579;DHT22;1299;48.282;14.398;2022-10-04T17:54:53;13.70;99.90
2579;DHT22;1299;48.282;14.398;2022-10-04T17:57:46;13.60;99.90
2579;DHT22;1299;48.282;14.398;2022-10-04T18:00:16;13.60;99.90
2579;DHT22;1299;48.282;14.398;2022-10-04T18:05:34;13.40;99.90
2579;DHT22;1299;48.282;14.398;2022-10-04T18:08:14;13.30;99.90
2579;DHT22;1299;48.282;14.398;2022-10-04T18:10:48;13.20;99.90
2579;DHT22;1299;48.282;14.398;2022-10-04T18:13:25;13.20;99.90
2579;DHT22;1299;48.282;14.398;2022-10-04T18:16:01;13.20;99.90
2579;DHT22;1299;48.282;14.398;2022-10-04T18:18:38;13.10;99.90
2579;DHT22;1299;48.282;14.398;2022-10-04T18:21:18;13.10;99.90
2579;DHT22;1299;48.282;14.398;2022-10-04T18:23:57;13.00;99.90
2579;DHT22;1299;48.282;14.398;2022-10-04T18:26:29;12.90;99.90
2579;DHT22;1299;48.282;14.398;2022-10-04T18:28:59;12.90;99.90
2579;DHT22;1299;48.282;14.398;2022-10-04T18:31:45;12.80;99.90
2579;DHT22;1299;48.282;14.398;2022-10-04T18:34:25;12.70;99.90
2579;DHT22;1299;48.282;14.398;2022-10-04T18:37:04;12.70;99.90
2579;DHT22;1299;48.282;14.398;2022-10-04T18:39:45;12.60;99.90
2579;DHT22;1299;48.282;14.398;2022-10-04T18:42:19;12.60;99.90
2579;DHT22;1299;48.282;14.398;2022-10-04T18:44:56;12.60;99.90
2579;DHT22;1299;48.282;14.398;2022-10-04T18:47:28;12.50;99.90
2579;DHT22;1299;48.282;14.398;2022-10-04T18:49:58;12.50;99.90
2579;DHT22;1299;48.282;14.398;2022-10-04T18:52:34;12.30;99.90
2579;DHT22;1299;48.282;14.398;2022-10-04T18:55:11;12.30;99.90
2579;DHT22;1299;48.282;14.398;2022-10-04T18:57:43;12.20;99.90
2579;DHT22;1299;48.282;14.398;2022-10-04T19:00:31;12.20;99.90
2579;DHT22;1299;48.282;14.398;2022-10-04T19:03:21;12.20;99.90
2579;DHT22;1299;48.282;14.398;2022-10-04T19:05:56;12.20;99.90
2579;DHT22;1299;48.282;14.398;2022-10-04T19:08:32;12.10;99.90
2579;DHT22;1299;48.282;14.398;2022-10-04T19:11:04;12.00;99.90
2579;DHT22;1299;48.282;14.398;2022-10-04T19:13:39;12.00;99.90
2579;DHT22;1299;48.282;14.398;2022-10-04T19:16:19;12.00;99.90
2579;DHT22;1299;48.282;14.398;2022-10-04T19:18:59;11.90;99.90
2579;DHT22;1299;48.282;14.398;2022-10-04T19:21:31;11.90;99.90
2579;DHT22;1299;48.282;14.398;2022-10-04T19:26:50;11.90;99.90
2579;DHT22;1299;48.282;14.398;2022-10-04T19:29:35;11.90;99.90
2579;DHT22;1299;48.282;14.398;2022-10-04T19:32:10;11.80;99.90
2579;DHT22;1299;48.282;14.398;2022-10-04T19:34:50;11.80;99.90